Accueil
METAR-TAF:

METAR-TAF

Aéroports :

Base aérienne

Niederstetten, Allemagne

latitude: 49-24N, longitude: 009-58E, altitude: 468 m

Observation

Le bulletin a été fait il y a 4 heures et 42 minutes, à 11:48 UTC
Vent 4 kt de nord
Température 6°C
Humidité 75%
Pression 1021 hPa
Visibilité 10 km ou plus
Nuages fragmentés à une hauteur de 1600 ft

METAR: ETHN 281148Z 01004KT 9999 BKN016 06/02 Q1021 WHT WHT BECMG BLU+

Heure: 17:30 (16:30 UTC)

Prévision

Le bulletin a été fait il y a 2 heures et 30 minutes, à 14:00 UTC
Prévision valable du 28 à 15 UTC au 28 à 24 UTC
Vent 5 kt de nord/nord-est
Visibilité 10 km ou plus
Quelques nuages à une hauteur de 2500 ft
Nuages épars à une hauteur de 30000 ft
Evoluant progressivement
du 28 à 20 UTC au 28 à 22 UTC
Vent 5 kt de sud-est
Visibilité 10 km ou plus
Nuages épars à une hauteur de 25000 ft

TAF: ETHN 281400Z 2815/2824 02005KT 9999 NSW FEW025 SCT300 BECMG 2820/2822 14005KT 9999 NSW SCT250

Observations et prévisions météorologiques de plus de 4000 aéroports (messages METAR et TAF).

Les stations disponibles sont représentées par des disques jaunes et rouges sur la carte.

Passer la souris dessus pour voir le nom de la station.

Cliquer dessus pour voir les observations et prévisions météorologiques.

Pour changer de carte: cliquez sur les boutons verts avec une croix noire pour zoomer, sur le bouton vert avec un tiret pour effectuer un zoom arrière, ou sur les flèches vertes pour les cartes adjacentes.


METAR-TAF: